Terminal Aerodrome Forecast
Issued by NWS

Home | Current Version | Previous Version | Graphics & Text | Print | Product List | Glossary On
Versions: 1 2 3 4 5 6 7 8 9 10 11 12
836
FTUS42 KMHX 011124 AAC
TAFPGV
TAF AMD
KPGV 011124Z 0111/0212 29008KT P6SM BKN050
     FM011400 29008KT P6SM SKC
     FM012300 30005KT P6SM SKC
      AMD LTD TO CLD VIS AND WIND=

USA.gov is the U.S. government's official web portal to all federal, state and local government web resources and services.